^^
Station Historical Data
Daily Summary for July 2, 2017 Units:  Both    English   Metric
« Previous Day
Next Day »
Daily Weekly Monthly Yearly Custom
  High: Low: Average:
Temperature: 74.1 °F /  23.4 °C 45.0 °F /  7.2 °C 57.6 °F /  14.2 °C
Dew Point: 35.8 °F /  2.1 °C 22.8 °F /  -5.1 °C 28.6 °F /  -1.9 °C
Humidity: 57% 16% 36%
Wind Speed: 6.9mph /  11.1km/h - 0.6mph /  1km/h
Wind Gust: 12.0mph /  19.3km/h - -
Wind- - SW
Pressure: 30.35 in /  1027.7 hPa 30.24 in /  1023.9 hPa -
Precipitation: 0.00 in /  0 mm    
Historical Graphs
 
 
Tabular Data for July 2, 2017
Time Temperature Dew Point Pressure Wind Wind Speed Wind Gust Humidity Rainfall Rate (Hourly) solar Conditions
00:01 50.2 °F /  10.1 °C 29.7 °F /  -1.3 °C 30.34in /  1027.3hPa Calm     45% 0.00in /  0mm 0.0 W/m2
00:07 50.0 °F /  10 °C 29.5 °F /  -1.4 °C 30.34in /  1027.3hPa Calm     45% 0.00in /  0mm 0.0 W/m2
00:13 49.8 °F /  9.9 °C 29.8 °F /  -1.2 °C 30.34in /  1027.3hPa Calm     46% 0.00in /  0mm 0.0 W/m2
00:19 49.6 °F /  9.8 °C 29.7 °F /  -1.3 °C 30.34in /  1027.3hPa Calm   1.0mph /  1.6km/h 46% 0.00in /  0mm 0.0 W/m2
00:25 49.5 °F /  9.7 °C 29.5 °F /  -1.4 °C 30.34in /  1027.3hPa Calm     46% 0.00in /  0mm 0.0 W/m2
00:31 49.5 °F /  9.7 °C 29.5 °F /  -1.4 °C 30.34in /  1027.3hPa Calm   1.0mph /  1.6km/h 46% 0.00in /  0mm 0.0 W/m2
00:37 49.5 °F /  9.7 °C 29.5 °F /  -1.4 °C 30.34in /  1027.3hPa Calm     46% 0.00in /  0mm 0.0 W/m2
00:44 49.3 °F /  9.6 °C 29.3 °F /  -1.5 °C 30.34in /  1027.3hPa Calm     46% 0.00in /  0mm 0.0 W/m2
00:50 49.1 °F /  9.5 °C 29.7 °F /  -1.3 °C 30.34in /  1027.3hPa Calm     47% 0.00in /  0mm 0.0 W/m2
00:56 48.9 °F /  9.4 °C 29.7 °F /  -1.3 °C 30.34in /  1027.3hPa Calm   2.0mph /  3.2km/h 47% 0.00in /  0mm 0.0 W/m2
01:02 48.9 °F /  9.4 °C 29.7 °F /  -1.3 °C 30.34in /  1027.3hPa Calm   2.0mph /  3.2km/h 47% 0.00in /  0mm 0.0 W/m2
01:08 48.9 °F /  9.4 °C 29.7 °F /  -1.3 °C 30.34in /  1027.3hPa Calm   1.0mph /  1.6km/h 47% 0.00in /  0mm 0.0 W/m2
01:14 48.7 °F /  9.3 °C 29.5 °F /  -1.4 °C 30.34in /  1027.3hPa Calm     47% 0.00in /  0mm 0.0 W/m2
01:20 48.7 °F /  9.3 °C 29.8 °F /  -1.2 °C 30.34in /  1027.3hPa Calm     48% 0.00in /  0mm 0.0 W/m2
01:27 48.6 °F /  9.2 °C 29.8 °F /  -1.2 °C 30.34in /  1027.3hPa Calm   1.0mph /  1.6km/h 48% 0.00in /  0mm 0.0 W/m2
01:33 48.6 °F /  9.2 °C 29.8 °F /  -1.2 °C 30.34in /  1027.3hPa Calm   4.0mph /  6.4km/h 48% 0.00in /  0mm 0.0 W/m2
01:39 48.6 °F /  9.2 °C 29.8 °F /  -1.2 °C 30.33in /  1027hPa Calm     48% 0.00in /  0mm 0.0 W/m2
01:45 48.6 °F /  9.2 °C 29.8 °F /  -1.2 °C 30.33in /  1027hPa Calm     48% 0.00in /  0mm 0.0 W/m2
01:51 48.4 °F /  9.1 °C 29.7 °F /  -1.3 °C 30.33in /  1027hPa Calm     48% 0.00in /  0mm 0.0 W/m2
01:57 48.4 °F /  9.1 °C 29.7 °F /  -1.3 °C 30.33in /  1027hPa Calm     48% 0.00in /  0mm 0.0 W/m2
02:04 48.2 °F /  9 °C 30.0 °F /  -1.1 °C 30.33in /  1027hPa Calm   3.0mph /  4.8km/h 49% 0.00in /  0mm 0.0 W/m2
02:10 48.0 °F /  8.9 °C 29.8 °F /  -1.2 °C 30.32in /  1026.6hPa Calm   2.0mph /  3.2km/h 49% 0.00in /  0mm 0.0 W/m2
02:16 48.0 °F /  8.9 °C 29.8 °F /  -1.2 °C 30.32in /  1026.6hPa Calm     49% 0.00in /  0mm 0.0 W/m2
02:22 47.8 °F /  8.8 °C 30.0 °F /  -1.1 °C 30.33in /  1027hPa Calm     50% 0.00in /  0mm 0.0 W/m2
02:28 47.7 °F /  8.7 °C 30.0 °F /  -1.1 °C 30.32in /  1026.6hPa SE 2.9mph /  4.7km/h 4.0mph /  6.4km/h 50% 0.00in /  0mm 0.0 W/m2
02:34 47.5 °F /  8.6 °C 29.8 °F /  -1.2 °C 30.32in /  1026.6hPa Calm     50% 0.00in /  0mm 0.0 W/m2
02:40 47.5 °F /  8.6 °C 29.8 °F /  -1.2 °C 30.32in /  1026.6hPa Calm   3.0mph /  4.8km/h 50% 0.00in /  0mm 0.0 W/m2
02:47 47.5 °F /  8.6 °C 30.2 °F /  -1 °C 30.32in /  1026.6hPa Calm     51% 0.00in /  0mm 0.0 W/m2
02:53 47.3 °F /  8.5 °C 30.0 °F /  -1.1 °C 30.32in /  1026.6hPa Calm     51% 0.00in /  0mm 0.0 W/m2
02:59 47.3 °F /  8.5 °C 30.0 °F /  -1.1 °C 30.32in /  1026.6hPa ESE 0.9mph /  1.4km/h 4.0mph /  6.4km/h 51% 0.00in /  0mm 0.0 W/m2
03:05 47.3 °F /  8.5 °C 30.6 °F /  -0.8 °C 30.32in /  1026.6hPa Calm     52% 0.00in /  0mm 0.0 W/m2
03:11 47.3 °F /  8.5 °C 30.6 °F /  -0.8 °C 30.32in /  1026.6hPa Calm     52% 0.00in /  0mm 0.0 W/m2
03:17 47.1 °F /  8.4 °C 30.4 °F /  -0.9 °C 30.32in /  1026.6hPa Calm   2.0mph /  3.2km/h 52% 0.00in /  0mm 0.0 W/m2
03:24 47.1 °F /  8.4 °C 30.4 °F /  -0.9 °C 30.32in /  1026.6hPa Calm     52% 0.00in /  0mm 0.0 W/m2
03:30 47.1 °F /  8.4 °C 30.4 °F /  -0.9 °C 30.32in /  1026.6hPa Calm     52% 0.00in /  0mm 0.0 W/m2
03:36 47.1 °F /  8.4 °C 30.4 °F /  -0.9 °C 30.31in /  1026.3hPa Calm   1.0mph /  1.6km/h 52% 0.00in /  0mm 0.0 W/m2
03:42 46.9 °F /  8.3 °C 30.2 °F /  -1 °C 30.31in /  1026.3hPa Calm   1.0mph /  1.6km/h 52% 0.00in /  0mm 0.0 W/m2
03:48 46.9 °F /  8.3 °C 30.2 °F /  -1 °C 30.31in /  1026.3hPa Calm   2.0mph /  3.2km/h 52% 0.00in /  0mm 0.0 W/m2
03:54 46.8 °F /  8.2 °C 30.6 °F /  -0.8 °C 30.31in /  1026.3hPa Calm     53% 0.00in /  0mm 0.0 W/m2
04:00 46.6 °F /  8.1 °C 30.4 °F /  -0.9 °C 30.31in /  1026.3hPa Calm   3.0mph /  4.8km/h 53% 0.00in /  0mm 0.0 W/m2
04:07 46.6 °F /  8.1 °C 30.4 °F /  -0.9 °C 30.31in /  1026.3hPa Calm     53% 0.00in /  0mm 0.0 W/m2
04:13 46.6 °F /  8.1 °C 30.4 °F /  -0.9 °C 30.31in /  1026.3hPa Calm     53% 0.00in /  0mm 0.0 W/m2
04:19 46.6 °F /  8.1 °C 30.4 °F /  -0.9 °C 30.31in /  1026.3hPa Calm   5.0mph /  8km/h 53% 0.00in /  0mm 0.0 W/m2
04:25 46.6 °F /  8.1 °C 30.4 °F /  -0.9 °C 30.31in /  1026.3hPa Calm   1.0mph /  1.6km/h 53% 0.00in /  0mm 0.0 W/m2
04:31 46.6 °F /  8.1 °C 30.4 °F /  -0.9 °C 30.31in /  1026.3hPa Calm   1.0mph /  1.6km/h 53% 0.00in /  0mm 0.0 W/m2
04:37 46.6 °F /  8.1 °C 30.4 °F /  -0.9 °C 30.31in /  1026.3hPa Calm     53% 0.00in /  0mm 0.0 W/m2
04:43 46.6 °F /  8.1 °C 30.7 °F /  -0.7 °C 30.31in /  1026.3hPa Calm   1.0mph /  1.6km/h 54% 0.00in /  0mm 0.0 W/m2
04:50 46.6 °F /  8.1 °C 30.4 °F /  -0.9 °C 30.31in /  1026.3hPa Calm     53% 0.00in /  0mm 0.0 W/m2
04:56 46.6 °F /  8.1 °C 30.7 °F /  -0.7 °C 30.31in /  1026.3hPa Calm     54% 0.00in /  0mm 0.0 W/m2
05:02 46.2 °F /  7.9 °C 30.6 °F /  -0.8 °C 30.31in /  1026.3hPa Calm   2.0mph /  3.2km/h 54% 0.00in /  0mm 0.0 W/m2
05:08 46.2 °F /  7.9 °C 30.6 °F /  -0.8 °C 30.31in /  1026.3hPa Calm     54% 0.00in /  0mm 0.0 W/m2
05:14 46.0 °F /  7.8 °C 30.4 °F /  -0.9 °C 30.31in /  1026.3hPa Calm   1.0mph /  1.6km/h 54% 0.00in /  0mm 0.0 W/m2
05:20 46.0 °F /  7.8 °C 30.4 °F /  -0.9 °C 30.31in /  1026.3hPa Calm     54% 0.00in /  0mm 0.0 W/m2
05:26 45.9 °F /  7.7 °C 30.6 °F /  -0.8 °C 30.32in /  1026.6hPa Calm   2.0mph /  3.2km/h 55% 0.00in /  0mm 0.0 W/m2
05:32 45.9 °F /  7.7 °C 30.6 °F /  -0.8 °C 30.32in /  1026.6hPa Calm     55% 0.00in /  0mm 0.0 W/m2
05:39 45.9 °F /  7.7 °C 30.6 °F /  -0.8 °C 30.31in /  1026.3hPa Calm   1.0mph /  1.6km/h 55% 0.00in /  0mm 0.0 W/m2
05:45 45.9 °F /  7.7 °C 30.6 °F /  -0.8 °C 30.32in /  1026.6hPa Calm     55% 0.00in /  0mm 0.0 W/m2
05:51 45.9 °F /  7.7 °C 30.6 °F /  -0.8 °C 30.32in /  1026.6hPa Calm   1.0mph /  1.6km/h 55% 0.00in /  0mm 0.0 W/m2
05:57 45.7 °F /  7.6 °C 30.4 °F /  -0.9 °C 30.32in /  1026.6hPa Calm     55% 0.00in /  0mm 0.0 W/m2
06:03 45.7 °F /  7.6 °C 30.9 °F /  -0.6 °C 30.32in /  1026.6hPa Calm     56% 0.00in /  0mm 0.0 W/m2
06:09 45.3 °F /  7.4 °C 30.6 °F /  -0.8 °C 30.32in /  1026.6hPa Calm   1.0mph /  1.6km/h 56% 0.00in /  0mm 0.0 W/m2
06:15 45.3 °F /  7.4 °C 30.6 °F /  -0.8 °C 30.32in /  1026.6hPa Calm   1.0mph /  1.6km/h 56% 0.00in /  0mm 0.0 W/m2
06:21 45.1 °F /  7.3 °C 30.4 °F /  -0.9 °C 30.32in /  1026.6hPa Calm   1.0mph /  1.6km/h 56% 0.00in /  0mm 0.0 W/m2
06:30 45.1 °F /  7.3 °C 30.7 °F /  -0.7 °C 30.32in /  1026.6hPa Calm     57% 0.00in /  0mm 0.0 W/m2
06:34 45.0 °F /  7.2 °C 30.6 °F /  -0.8 °C 30.32in /  1026.6hPa Calm   1.0mph /  1.6km/h 57% 0.00in /  0mm 0.0 W/m2
06:40 45.1 °F /  7.3 °C 30.4 °F /  -0.9 °C 30.32in /  1026.6hPa Calm     56% 0.00in /  0mm 5.0 W/m2
06:46 45.1 °F /  7.3 °C 30.7 °F /  -0.7 °C 30.32in /  1026.6hPa Calm   1.0mph /  1.6km/h 57% 0.00in /  0mm 9.0 W/m2
06:52 45.1 °F /  7.3 °C 30.7 °F /  -0.7 °C 30.32in /  1026.6hPa Calm   2.0mph /  3.2km/h 57% 0.00in /  0mm 11.0 W/m2
06:58 45.1 °F /  7.3 °C 30.7 °F /  -0.7 °C 30.32in /  1026.6hPa Calm     57% 0.00in /  0mm 12.0 W/m2
07:05 45.1 °F /  7.3 °C 30.7 °F /  -0.7 °C 30.33in /  1027hPa Calm     57% 0.00in /  0mm 14.0 W/m2
07:11 45.1 °F /  7.3 °C 30.7 °F /  -0.7 °C 30.33in /  1027hPa Calm   1.0mph /  1.6km/h 57% 0.00in /  0mm 16.0 W/m2
07:17 45.3 °F /  7.4 °C 30.9 °F /  -0.6 °C 30.33in /  1027hPa Calm     57% 0.00in /  0mm 18.0 W/m2
07:23 45.7 °F /  7.6 °C 31.3 °F /  -0.4 °C 30.33in /  1027hPa ESE 0.9mph /  1.4km/h 1.0mph /  1.6km/h 57% 0.00in /  0mm 19.0 W/m2
07:29 45.9 °F /  7.7 °C 31.5 °F /  -0.3 °C 30.34in /  1027.3hPa Calm     57% 0.00in /  0mm 21.0 W/m2
07:35 46.0 °F /  7.8 °C 31.6 °F /  -0.2 °C 30.34in /  1027.3hPa Calm     57% 0.00in /  0mm 23.0 W/m2
07:41 46.6 °F /  8.1 °C 32.2 °F /  0.1 °C 30.34in /  1027.3hPa Calm     57% 0.00in /  0mm 23.0 W/m2
07:47 46.9 °F /  8.3 °C 32.5 °F /  0.3 °C 30.34in /  1027.3hPa Calm   1.0mph /  1.6km/h 57% 0.00in /  0mm 25.0 W/m2
07:54 47.7 °F /  8.7 °C 33.3 °F /  0.7 °C 30.34in /  1027.3hPa Calm     57% 0.00in /  0mm 26.0 W/m2
08:00 48.9 °F /  9.4 °C 34.0 °F /  1.1 °C 30.34in /  1027.3hPa Calm     56% 0.00in /  0mm 207.0 W/m2
08:06 50.7 °F /  10.4 °C 34.2 °F /  1.2 °C 30.34in /  1027.3hPa Calm     53% 0.00in /  0mm 276.0 W/m2
08:12 53.2 °F /  11.8 °C 34.5 °F /  1.4 °C 30.34in /  1027.3hPa Calm     49% 0.00in /  0mm 295.0 W/m2
08:18 55.8 °F /  13.2 °C 34.7 °F /  1.5 °C 30.34in /  1027.3hPa Calm     45% 0.00in /  0mm 316.0 W/m2
08:24 58.1 °F /  14.5 °C 35.1 °F /  1.7 °C 30.34in /  1027.3hPa Calm     42% 0.00in /  0mm 338.0 W/m2
08:31 60.1 °F /  15.6 °C 35.1 °F /  1.7 °C 30.34in /  1027.3hPa Calm     39% 0.00in /  0mm 355.0 W/m2
08:37 60.6 °F /  15.9 °C 34.2 °F /  1.2 °C 30.34in /  1027.3hPa Calm     37% 0.00in /  0mm 373.0 W/m2
08:43 61.9 °F /  16.6 °C 34.7 °F /  1.5 °C 30.34in /  1027.3hPa Calm   1.0mph /  1.6km/h 36% 0.00in /  0mm 394.0 W/m2
08:49 63.3 °F /  17.4 °C 35.2 °F /  1.8 °C 30.34in /  1027.3hPa North 0.9mph /  1.4km/h 1.0mph /  1.6km/h 35% 0.00in /  0mm 415.0 W/m2
08:55 64.9 °F /  18.3 °C 34.3 °F /  1.3 °C 30.35in /  1027.7hPa Calm   1.0mph /  1.6km/h 32% 0.00in /  0mm 431.0 W/m2
09:01 65.8 °F /  18.8 °C 34.3 °F /  1.3 °C 30.35in /  1027.7hPa NNW 2.9mph /  4.7km/h 4.0mph /  6.4km/h 31% 0.00in /  0mm 446.0 W/m2
09:07 66.7 °F /  19.3 °C 35.1 °F /  1.7 °C 30.35in /  1027.7hPa NNW 2.0mph /  3.2km/h 3.0mph /  4.8km/h 31% 0.00in /  0mm 461.0 W/m2
09:13 67.3 °F /  19.6 °C 34.7 °F /  1.5 °C 30.35in /  1027.7hPa NW 2.9mph /  4.7km/h 6.0mph /  9.7km/h 30% 0.00in /  0mm 476.0 W/m2
09:20 67.3 °F /  19.6 °C 34.7 °F /  1.5 °C 30.35in /  1027.7hPa WNW 2.0mph /  3.2km/h 5.0mph /  8km/h 30% 0.00in /  0mm 490.0 W/m2
09:26 67.6 °F /  19.8 °C 35.1 °F /  1.7 °C 30.35in /  1027.7hPa NNW 2.9mph /  4.7km/h 5.0mph /  8km/h 30% 0.00in /  0mm 508.0 W/m2
09:32 67.8 °F /  19.9 °C 35.2 °F /  1.8 °C 30.35in /  1027.7hPa WNW 0.9mph /  1.4km/h 5.0mph /  8km/h 30% 0.00in /  0mm 520.0 W/m2
09:38 68.2 °F /  20.1 °C 35.6 °F /  2 °C 30.35in /  1027.7hPa WNW 0.9mph /  1.4km/h 1.0mph /  1.6km/h 30% 0.00in /  0mm 533.0 W/m2
09:44 68.2 °F /  20.1 °C 35.6 °F /  2 °C 30.35in /  1027.7hPa North 4.9mph /  7.9km/h 5.0mph /  8km/h 30% 0.00in /  0mm 548.0 W/m2
09:50 68.4 °F /  20.2 °C 35.8 °F /  2.1 °C 30.35in /  1027.7hPa NNW 0.9mph /  1.4km/h 2.0mph /  3.2km/h 30% 0.00in /  0mm 559.0 W/m2
09:56 68.4 °F /  20.2 °C 35.8 °F /  2.1 °C 30.35in /  1027.7hPa NNW 2.0mph /  3.2km/h 4.0mph /  6.4km/h 30% 0.00in /  0mm 573.0 W/m2
10:02 68.9 °F /  20.5 °C 34.5 °F /  1.4 °C 30.34in /  1027.3hPa NNE 2.0mph /  3.2km/h 4.0mph /  6.4km/h 28% 0.00in /  0mm 584.0 W/m2
10:09 69.3 °F /  20.7 °C 34.7 °F /  1.5 °C 30.34in /  1027.3hPa West 0.9mph /  1.4km/h 6.0mph /  9.7km/h 28% 0.00in /  0mm 596.0 W/m2
10:15 69.4 °F /  20.8 °C 34.9 °F /  1.6 °C 30.34in /  1027.3hPa NNW 2.0mph /  3.2km/h 7.0mph /  11.3km/h 28% 0.00in /  0mm 599.0 W/m2
10:21 69.8 °F /  21 °C 35.2 °F /  1.8 °C 30.33in /  1027hPa NNW 4.0mph /  6.4km/h 5.0mph /  8km/h 28% 0.00in /  0mm 613.0 W/m2
10:27 70.2 °F /  21.2 °C 35.6 °F /  2 °C 30.33in /  1027hPa WNW 2.9mph /  4.7km/h 5.0mph /  8km/h 28% 0.00in /  0mm 624.0 W/m2
10:33 70.3 °F /  21.3 °C 34.7 °F /  1.5 °C 30.33in /  1027hPa NNW 0.9mph /  1.4km/h 6.0mph /  9.7km/h 27% 0.00in /  0mm 631.0 W/m2
10:39 70.9 °F /  21.6 °C 35.2 °F /  1.8 °C 30.32in /  1026.6hPa Calm   2.0mph /  3.2km/h 27% 0.00in /  0mm 640.0 W/m2
10:45 71.1 °F /  21.7 °C 35.4 °F /  1.9 °C 30.32in /  1026.6hPa North 2.0mph /  3.2km/h 2.0mph /  3.2km/h 27% 0.00in /  0mm 654.0 W/m2
10:52 71.2 °F /  21.8 °C 34.5 °F /  1.4 °C 30.32in /  1026.6hPa Calm   5.0mph /  8km/h 26% 0.00in /  0mm 654.0 W/m2
10:58 71.4 °F /  21.9 °C 34.7 °F /  1.5 °C 30.32in /  1026.6hPa SW 2.0mph /  3.2km/h 4.0mph /  6.4km/h 26% 0.00in /  0mm 661.0 W/m2
11:04 71.8 °F /  22.1 °C 33.1 °F /  0.6 °C 30.32in /  1026.6hPa NNW 2.9mph /  4.7km/h 7.0mph /  11.3km/h 24% 0.00in /  0mm 668.0 W/m2
11:10 71.8 °F /  22.1 °C 33.1 °F /  0.6 °C 30.32in /  1026.6hPa Calm   7.0mph /  11.3km/h 24% 0.00in /  0mm 673.0 W/m2
11:16 72.0 °F /  22.2 °C 33.3 °F /  0.7 °C 30.31in /  1026.3hPa NNE 4.0mph /  6.4km/h 6.0mph /  9.7km/h 24% 0.00in /  0mm 677.0 W/m2
11:22 72.1 °F /  22.3 °C 33.4 °F /  0.8 °C 30.30in /  1026hPa WNW 2.0mph /  3.2km/h 6.0mph /  9.7km/h 24% 0.00in /  0mm 677.0 W/m2
11:28 72.3 °F /  22.4 °C 32.4 °F /  0.2 °C 30.30in /  1026hPa NW 2.9mph /  4.7km/h 5.0mph /  8km/h 23% 0.00in /  0mm 673.0 W/m2
11:34 72.3 °F /  22.4 °C 28.9 °F /  -1.7 °C 30.30in /  1026hPa North 2.9mph /  4.7km/h 11.0mph /  17.7km/h 20% 0.00in /  0mm 691.0 W/m2
11:40 72.5 °F /  22.5 °C 31.5 °F /  -0.3 °C 30.30in /  1026hPa NW 0.9mph /  1.4km/h 2.0mph /  3.2km/h 22% 0.00in /  0mm 682.0 W/m2
11:47 72.5 °F /  22.5 °C 29.1 °F /  -1.6 °C 30.29in /  1025.6hPa North 4.0mph /  6.4km/h 8.0mph /  12.9km/h 20% 0.00in /  0mm 686.0 W/m2
11:53 72.5 °F /  22.5 °C 26.6 °F /  -3 °C 30.29in /  1025.6hPa WSW 0.9mph /  1.4km/h 9.0mph /  14.5km/h 18% 0.00in /  0mm 696.0 W/m2
11:59 72.5 °F /  22.5 °C 25.2 °F /  -3.8 °C 30.29in /  1025.6hPa WSW 0.9mph /  1.4km/h 4.0mph /  6.4km/h 17% 0.00in /  0mm 689.0 W/m2
12:05 72.9 °F /  22.7 °C 27.0 °F /  -2.8 °C 30.29in /  1025.6hPa North 6.9mph /  11.1km/h 7.0mph /  11.3km/h 18% 0.00in /  0mm 684.0 W/m2
12:11 73.0 °F /  22.8 °C 27.0 °F /  -2.8 °C 30.29in /  1025.6hPa ENE 4.9mph /  7.9km/h 9.0mph /  14.5km/h 18% 0.00in /  0mm 686.0 W/m2
12:17 73.2 °F /  22.9 °C 27.1 °F /  -2.7 °C 30.28in /  1025.3hPa North 0.9mph /  1.4km/h 4.0mph /  6.4km/h 18% 0.00in /  0mm 679.0 W/m2
12:23 73.2 °F /  22.9 °C 27.1 °F /  -2.7 °C 30.28in /  1025.3hPa NNE 6.9mph /  11.1km/h 11.0mph /  17.7km/h 18% 0.00in /  0mm 677.0 W/m2
12:29 73.2 °F /  22.9 °C 28.4 °F /  -2 °C 30.27in /  1024.9hPa Calm   5.0mph /  8km/h 19% 0.00in /  0mm 673.0 W/m2
12:36 73.4 °F /  23 °C 28.6 °F /  -1.9 °C 30.27in /  1024.9hPa WSW 2.0mph /  3.2km/h 5.0mph /  8km/h 19% 0.00in /  0mm 668.0 W/m2
12:42 73.0 °F /  22.8 °C 28.4 °F /  -2 °C 30.27in /  1024.9hPa NNW 2.0mph /  3.2km/h 5.0mph /  8km/h 19% 0.00in /  0mm 661.0 W/m2
12:48 73.2 °F /  22.9 °C 27.1 °F /  -2.7 °C 30.26in /  1024.6hPa NNE 0.9mph /  1.4km/h 10.0mph /  16.1km/h 18% 0.00in /  0mm 661.0 W/m2
12:54 73.4 °F /  23 °C 27.3 °F /  -2.6 °C 30.26in /  1024.6hPa NNW 4.0mph /  6.4km/h 12.0mph /  19.3km/h 18% 0.00in /  0mm 649.0 W/m2
13:00 73.2 °F /  22.9 °C 27.1 °F /  -2.7 °C 30.26in /  1024.6hPa North 4.9mph /  7.9km/h 10.0mph /  16.1km/h 18% 0.00in /  0mm 643.0 W/m2
13:06 73.2 °F /  22.9 °C 27.1 °F /  -2.7 °C 30.26in /  1024.6hPa Calm   4.0mph /  6.4km/h 18% 0.00in /  0mm 635.0 W/m2
13:12 73.6 °F /  23.1 °C 26.1 °F /  -3.3 °C 30.26in /  1024.6hPa NNW 0.9mph /  1.4km/h 9.0mph /  14.5km/h 17% 0.00in /  0mm 626.0 W/m2
13:18 73.6 °F /  23.1 °C 26.1 °F /  -3.3 °C 30.25in /  1024.3hPa Calm   7.0mph /  11.3km/h 17% 0.00in /  0mm 622.0 W/m2
13:25 73.2 °F /  22.9 °C 25.7 °F /  -3.5 °C 30.26in /  1024.6hPa Calm   2.0mph /  3.2km/h 17% 0.00in /  0mm 610.0 W/m2
13:31 73.2 °F /  22.9 °C 25.7 °F /  -3.5 °C 30.25in /  1024.3hPa West 0.9mph /  1.4km/h 6.0mph /  9.7km/h 17% 0.00in /  0mm 591.0 W/m2
13:37 73.4 °F /  23 °C 25.9 °F /  -3.4 °C 30.25in /  1024.3hPa Calm   7.0mph /  11.3km/h 17% 0.00in /  0mm 585.0 W/m2
13:43 73.4 °F /  23 °C 25.9 °F /  -3.4 °C 30.25in /  1024.3hPa WNW 2.0mph /  3.2km/h 5.0mph /  8km/h 17% 0.00in /  0mm 582.0 W/m2
13:49 73.4 °F /  23 °C 24.4 °F /  -4.2 °C 30.25in /  1024.3hPa Calm   12.0mph /  19.3km/h 16% 0.00in /  0mm 568.0 W/m2
13:55 73.6 °F /  23.1 °C 24.6 °F /  -4.1 °C 30.24in /  1023.9hPa Calm   2.0mph /  3.2km/h 16% 0.00in /  0mm 555.0 W/m2
14:01 73.4 °F /  23 °C 24.4 °F /  -4.2 °C 30.24in /  1023.9hPa Calm   3.0mph /  4.8km/h 16% 0.00in /  0mm 541.0 W/m2
14:08 73.4 °F /  23 °C 24.4 °F /  -4.2 °C 30.24in /  1023.9hPa Calm   4.0mph /  6.4km/h 16% 0.00in /  0mm 529.0 W/m2
14:14 73.6 °F /  23.1 °C 26.1 °F /  -3.3 °C 30.24in /  1023.9hPa Calm   9.0mph /  14.5km/h 17% 0.00in /  0mm 513.0 W/m2
14:20 73.8 °F /  23.2 °C 26.2 °F /  -3.2 °C 30.24in /  1023.9hPa Calm   7.0mph /  11.3km/h 17% 0.00in /  0mm 497.0 W/m2
14:26 74.1 °F /  23.4 °C 25.0 °F /  -3.9 °C 30.24in /  1023.9hPa WNW 2.0mph /  3.2km/h 4.0mph /  6.4km/h 16% 0.00in /  0mm 482.0 W/m2
14:32 73.8 °F /  23.2 °C 24.8 °F /  -4 °C 30.24in /  1023.9hPa Calm   2.0mph /  3.2km/h 16% 0.00in /  0mm 468.0 W/m2
14:38 73.8 °F /  23.2 °C 24.8 °F /  -4 °C 30.24in /  1023.9hPa West 0.9mph /  1.4km/h 4.0mph /  6.4km/h 16% 0.00in /  0mm 452.0 W/m2
14:44 73.8 °F /  23.2 °C 24.8 °F /  -4 °C 30.24in /  1023.9hPa West 2.0mph /  3.2km/h 8.0mph /  12.9km/h 16% 0.00in /  0mm 438.0 W/m2
14:50 73.8 °F /  23.2 °C 24.8 °F /  -4 °C 30.24in /  1023.9hPa West 2.0mph /  3.2km/h 6.0mph /  9.7km/h 16% 0.00in /  0mm 418.0 W/m2
14:56 73.2 °F /  22.9 °C 24.3 °F /  -4.3 °C 30.24in /  1023.9hPa West 6.9mph /  11.1km/h 7.0mph /  11.3km/h 16% 0.00in /  0mm 403.0 W/m2
15:03 72.9 °F /  22.7 °C 24.1 °F /  -4.4 °C 30.24in /  1023.9hPa West 4.9mph /  7.9km/h 6.0mph /  9.7km/h 16% 0.00in /  0mm 385.0 W/m2
15:09 72.3 °F /  22.4 °C 25.0 °F /  -3.9 °C 30.24in /  1023.9hPa NW 0.9mph /  1.4km/h 5.0mph /  8km/h 17% 0.00in /  0mm 367.0 W/m2
15:15 72.1 °F /  22.3 °C 25.0 °F /  -3.9 °C 30.24in /  1023.9hPa SW 2.9mph /  4.7km/h 7.0mph /  11.3km/h 17% 0.00in /  0mm 350.0 W/m2
15:21 72.0 °F /  22.2 °C 24.8 °F /  -4 °C 30.24in /  1023.9hPa West 2.0mph /  3.2km/h 4.0mph /  6.4km/h 17% 0.00in /  0mm 329.0 W/m2
15:27 71.6 °F /  22 °C 24.4 °F /  -4.2 °C 30.24in /  1023.9hPa West 0.9mph /  1.4km/h 4.0mph /  6.4km/h 17% 0.00in /  0mm 46.0 W/m2
15:33 71.4 °F /  21.9 °C 24.3 °F /  -4.3 °C 30.24in /  1023.9hPa Calm   2.0mph /  3.2km/h 17% 0.00in /  0mm 40.0 W/m2
15:39 71.2 °F /  21.8 °C 24.3 °F /  -4.3 °C 30.24in /  1023.9hPa West 0.9mph /  1.4km/h 5.0mph /  8km/h 17% 0.00in /  0mm 39.0 W/m2
15:45 71.1 °F /  21.7 °C 24.1 °F /  -4.4 °C 30.24in /  1023.9hPa Calm   1.0mph /  1.6km/h 17% 0.00in /  0mm 37.0 W/m2
15:51 70.5 °F /  21.4 °C 25.0 °F /  -3.9 °C 30.24in /  1023.9hPa Calm   1.0mph /  1.6km/h 18% 0.00in /  0mm 35.0 W/m2
15:57 70.3 °F /  21.3 °C 24.8 °F /  -4 °C 30.24in /  1023.9hPa WSW 0.9mph /  1.4km/h 3.0mph /  4.8km/h 18% 0.00in /  0mm 33.0 W/m2
16:03 70.0 °F /  21.1 °C 24.4 °F /  -4.2 °C 30.24in /  1023.9hPa Calm     18% 0.00in /  0mm 30.0 W/m2
16:09 69.6 °F /  20.9 °C 24.3 °F /  -4.3 °C 30.24in /  1023.9hPa NNW 0.9mph /  1.4km/h 1.0mph /  1.6km/h 18% 0.00in /  0mm 26.0 W/m2
16:15 69.4 °F /  20.8 °C 24.1 °F /  -4.4 °C 30.24in /  1023.9hPa Calm   2.0mph /  3.2km/h 18% 0.00in /  0mm 23.0 W/m2
16:21 69.3 °F /  20.7 °C 23.9 °F /  -4.5 °C 30.25in /  1024.3hPa North 2.0mph /  3.2km/h 3.0mph /  4.8km/h 18% 0.00in /  0mm 21.0 W/m2
16:27 68.9 °F /  20.5 °C 23.7 °F /  -4.6 °C 30.25in /  1024.3hPa Calm   4.0mph /  6.4km/h 18% 0.00in /  0mm 19.0 W/m2
16:33 68.7 °F /  20.4 °C 23.5 °F /  -4.7 °C 30.25in /  1024.3hPa NW 0.9mph /  1.4km/h 4.0mph /  6.4km/h 18% 0.00in /  0mm 19.0 W/m2
16:39 68.5 °F /  20.3 °C 24.6 °F /  -4.1 °C 30.25in /  1024.3hPa Calm     19% 0.00in /  0mm 18.0 W/m2
16:45 68.2 °F /  20.1 °C 24.3 °F /  -4.3 °C 30.25in /  1024.3hPa Calm   2.0mph /  3.2km/h 19% 0.00in /  0mm 16.0 W/m2
16:51 67.8 °F /  19.9 °C 22.8 °F /  -5.1 °C 30.26in /  1024.6hPa North 0.9mph /  1.4km/h 4.0mph /  6.4km/h 18% 0.00in /  0mm 14.0 W/m2
16:57 67.6 °F /  19.8 °C 25.2 °F /  -3.8 °C 30.26in /  1024.6hPa Calm     20% 0.00in /  0mm 12.0 W/m2
17:03 67.3 °F /  19.6 °C 23.5 °F /  -4.7 °C 30.26in /  1024.6hPa WNW 0.9mph /  1.4km/h 2.0mph /  3.2km/h 19% 0.00in /  0mm 11.0 W/m2
17:09 66.7 °F /  19.3 °C 23.2 °F /  -4.9 °C 30.26in /  1024.6hPa Calm   1.0mph /  1.6km/h 19% 0.00in /  0mm 7.0 W/m2
17:15 66.4 °F /  19.1 °C 24.1 °F /  -4.4 °C 30.26in /  1024.6hPa Calm     20% 0.00in /  0mm 5.0 W/m2
17:21 65.7 °F /  18.7 °C 24.6 °F /  -4.1 °C 30.26in /  1024.6hPa Calm     21% 0.00in /  0mm 0.0 W/m2
17:27 64.9 °F /  18.3 °C 25.2 °F /  -3.8 °C 30.27in /  1024.9hPa Calm     22% 0.00in /  0mm 0.0 W/m2
17:33 64.2 °F /  17.9 °C 25.7 °F /  -3.5 °C 30.27in /  1024.9hPa Calm     23% 0.00in /  0mm 0.0 W/m2
17:39 63.3 °F /  17.4 °C 24.8 °F /  -4 °C 30.27in /  1024.9hPa Calm     23% 0.00in /  0mm 0.0 W/m2
17:45 62.4 °F /  16.9 °C 25.2 °F /  -3.8 °C 30.27in /  1024.9hPa Calm     24% 0.00in /  0mm 0.0 W/m2
17:51 61.7 °F /  16.5 °C 24.6 °F /  -4.1 °C 30.27in /  1024.9hPa Calm     24% 0.00in /  0mm 0.0 W/m2
17:57 61.2 °F /  16.2 °C 24.1 °F /  -4.4 °C 30.28in /  1025.3hPa Calm     24% 0.00in /  0mm 0.0 W/m2
18:05 60.1 °F /  15.6 °C 24.1 °F /  -4.4 °C 30.28in /  1025.3hPa Calm     25% 0.00in /  0mm 0.0 W/m2
18:11 59.4 °F /  15.2 °C 23.5 °F /  -4.7 °C 30.28in /  1025.3hPa Calm     25% 0.00in /  0mm 0.0 W/m2
18:17 58.6 °F /  14.8 °C 23.9 °F /  -4.5 °C 30.29in /  1025.6hPa Calm     26% 0.00in /  0mm 0.0 W/m2
18:23 58.3 °F /  14.6 °C 24.4 °F /  -4.2 °C 30.29in /  1025.6hPa Calm     27% 0.00in /  0mm 0.0 W/m2
18:29 57.6 °F /  14.2 °C 23.9 °F /  -4.5 °C 30.29in /  1025.6hPa Calm     27% 0.00in /  0mm 0.0 W/m2
18:35 56.8 °F /  13.8 °C 24.1 °F /  -4.4 °C 30.29in /  1025.6hPa Calm     28% 0.00in /  0mm 0.0 W/m2
18:42 56.5 °F /  13.6 °C 23.7 °F /  -4.6 °C 30.29in /  1025.6hPa Calm     28% 0.00in /  0mm 0.0 W/m2
18:48 55.8 °F /  13.2 °C 23.9 °F /  -4.5 °C 30.30in /  1026hPa Calm     29% 0.00in /  0mm 0.0 W/m2
18:53 55.4 °F /  13 °C 22.8 °F /  -5.1 °C 30.30in /  1026hPa Calm     28% 0.00in /  0mm 0.0 W/m2
18:59 55.0 °F /  12.8 °C 23.4 °F /  -4.8 °C 30.30in /  1026hPa Calm     29% 0.00in /  0mm 0.0 W/m2
19:05 54.7 °F /  12.6 °C 23.9 °F /  -4.5 °C 30.30in /  1026hPa Calm   1.0mph /  1.6km/h 30% 0.00in /  0mm 0.0 W/m2
19:11 54.3 °F /  12.4 °C 24.3 °F /  -4.3 °C 30.30in /  1026hPa Calm     31% 0.00in /  0mm 0.0 W/m2
19:17 54.3 °F /  12.4 °C 25.2 °F /  -3.8 °C 30.30in /  1026hPa Calm     32% 0.00in /  0mm 0.0 W/m2
19:23 54.1 °F /  12.3 °C 25.7 °F /  -3.5 °C 30.31in /  1026.3hPa Calm     33% 0.00in /  0mm 0.0 W/m2
19:30 54.1 °F /  12.3 °C 26.4 °F /  -3.1 °C 30.31in /  1026.3hPa Calm     34% 0.00in /  0mm 0.0 W/m2
19:35 54.3 °F /  12.4 °C 27.3 °F /  -2.6 °C 30.31in /  1026.3hPa Calm   6.0mph /  9.7km/h 35% 0.00in /  0mm 0.0 W/m2
19:42 55.2 °F /  12.9 °C 28.0 °F /  -2.2 °C 30.31in /  1026.3hPa Calm     35% 0.00in /  0mm 0.0 W/m2
19:48 55.4 °F /  13 °C 26.1 °F /  -3.3 °C 30.31in /  1026.3hPa Calm     32% 0.00in /  0mm 0.0 W/m2
19:54 55.0 °F /  12.8 °C 27.1 °F /  -2.7 °C 30.31in /  1026.3hPa Calm     34% 0.00in /  0mm 0.0 W/m2
20:00 54.7 °F /  12.6 °C 26.8 °F /  -2.9 °C 30.31in /  1026.3hPa Calm     34% 0.00in /  0mm 0.0 W/m2
20:06 54.1 °F /  12.3 °C 27.1 °F /  -2.7 °C 30.31in /  1026.3hPa Calm     35% 0.00in /  0mm 0.0 W/m2
20:12 54.0 °F /  12.2 °C 27.0 °F /  -2.8 °C 30.31in /  1026.3hPa Calm     35% 0.00in /  0mm 0.0 W/m2
20:18 54.0 °F /  12.2 °C 27.7 °F /  -2.4 °C 30.32in /  1026.6hPa Calm   1.0mph /  1.6km/h 36% 0.00in /  0mm 0.0 W/m2
20:24 54.0 °F /  12.2 °C 27.7 °F /  -2.4 °C 30.32in /  1026.6hPa East 2.0mph /  3.2km/h 2.0mph /  3.2km/h 36% 0.00in /  0mm 0.0 W/m2
20:30 54.0 °F /  12.2 °C 27.0 °F /  -2.8 °C 30.32in /  1026.6hPa Calm   1.0mph /  1.6km/h 35% 0.00in /  0mm 0.0 W/m2
20:36 53.8 °F /  12.1 °C 26.1 °F /  -3.3 °C 30.32in /  1026.6hPa Calm   2.0mph /  3.2km/h 34% 0.00in /  0mm 0.0 W/m2
20:42 53.4 °F /  11.9 °C 25.7 °F /  -3.5 °C 30.32in /  1026.6hPa Calm   1.0mph /  1.6km/h 34% 0.00in /  0mm 0.0 W/m2
20:48 53.4 °F /  11.9 °C 25.7 °F /  -3.5 °C 30.32in /  1026.6hPa ENE 2.0mph /  3.2km/h 3.0mph /  4.8km/h 34% 0.00in /  0mm 0.0 W/m2
20:54 53.2 °F /  11.8 °C 27.0 °F /  -2.8 °C 30.32in /  1026.6hPa Calm   1.0mph /  1.6km/h 36% 0.00in /  0mm 0.0 W/m2
21:00 53.1 °F /  11.7 °C 25.3 °F /  -3.7 °C 30.32in /  1026.6hPa Calm   3.0mph /  4.8km/h 34% 0.00in /  0mm 0.0 W/m2
21:06 52.9 °F /  11.6 °C 26.6 °F /  -3 °C 30.32in /  1026.6hPa Calm   1.0mph /  1.6km/h 36% 0.00in /  0mm 0.0 W/m2
21:12 52.9 °F /  11.6 °C 25.9 °F /  -3.4 °C 30.32in /  1026.6hPa Calm     35% 0.00in /  0mm 0.0 W/m2
21:18 52.5 °F /  11.4 °C 27.0 °F /  -2.8 °C 30.32in /  1026.6hPa Calm     37% 0.00in /  0mm 0.0 W/m2
21:24 52.2 °F /  11.2 °C 27.3 °F /  -2.6 °C 30.32in /  1026.6hPa Calm     38% 0.00in /  0mm 0.0 W/m2
21:30 51.6 °F /  10.9 °C 27.5 °F /  -2.5 °C 30.32in /  1026.6hPa Calm     39% 0.00in /  0mm 0.0 W/m2
21:36 51.3 °F /  10.7 °C 27.7 °F /  -2.4 °C 30.33in /  1027hPa Calm     40% 0.00in /  0mm 0.0 W/m2
21:42 50.5 °F /  10.3 °C 27.7 °F /  -2.4 °C 30.33in /  1027hPa Calm     41% 0.00in /  0mm 0.0 W/m2
21:48 50.2 °F /  10.1 °C 28.0 °F /  -2.2 °C 30.32in /  1026.6hPa Calm     42% 0.00in /  0mm 0.0 W/m2
21:54 49.6 °F /  9.8 °C 27.5 °F /  -2.5 °C 30.32in /  1026.6hPa Calm   1.0mph /  1.6km/h 42% 0.00in /  0mm 0.0 W/m2
22:00 49.5 °F /  9.7 °C 26.8 °F /  -2.9 °C 30.32in /  1026.6hPa Calm   1.0mph /  1.6km/h 41% 0.00in /  0mm 0.0 W/m2
22:06 49.3 °F /  9.6 °C 26.6 °F /  -3 °C 30.32in /  1026.6hPa Calm     41% 0.00in /  0mm 0.0 W/m2
22:12 49.1 °F /  9.5 °C 26.4 °F /  -3.1 °C 30.33in /  1027hPa Calm     41% 0.00in /  0mm 0.0 W/m2
22:18 48.9 °F /  9.4 °C 26.2 °F /  -3.2 °C 30.33in /  1027hPa Calm     41% 0.00in /  0mm 0.0 W/m2
22:24 48.7 °F /  9.3 °C 26.1 °F /  -3.3 °C 30.33in /  1027hPa Calm     41% 0.00in /  0mm 0.0 W/m2
22:30 48.7 °F /  9.3 °C 26.6 °F /  -3 °C 30.33in /  1027hPa Calm     42% 0.00in /  0mm 0.0 W/m2
22:36 48.6 °F /  9.2 °C 26.4 °F /  -3.1 °C 30.33in /  1027hPa Calm     42% 0.00in /  0mm 0.0 W/m2
22:42 48.6 °F /  9.2 °C 27.1 °F /  -2.7 °C 30.33in /  1027hPa Calm     43% 0.00in /  0mm 0.0 W/m2
22:48 48.6 °F /  9.2 °C 27.1 °F /  -2.7 °C 30.33in /  1027hPa Calm     43% 0.00in /  0mm 0.0 W/m2
22:54 48.4 °F /  9.1 °C 27.0 °F /  -2.8 °C 30.34in /  1027.3hPa Calm   1.0mph /  1.6km/h 43% 0.00in /  0mm 0.0 W/m2
23:00 48.2 °F /  9 °C 26.8 °F /  -2.9 °C 30.34in /  1027.3hPa Calm     43% 0.00in /  0mm 0.0 W/m2
23:06 48.0 °F /  8.9 °C 26.6 °F /  -3 °C 30.33in /  1027hPa Calm   1.0mph /  1.6km/h 43% 0.00in /  0mm 0.0 W/m2
23:12 47.8 °F /  8.8 °C 27.0 °F /  -2.8 °C 30.33in /  1027hPa Calm   1.0mph /  1.6km/h 44% 0.00in /  0mm 0.0 W/m2
23:18 47.8 °F /  8.8 °C 27.0 °F /  -2.8 °C 30.33in /  1027hPa Calm     44% 0.00in /  0mm 0.0 W/m2
23:24 47.7 °F /  8.7 °C 27.3 °F /  -2.6 °C 30.34in /  1027.3hPa ESE 0.9mph /  1.4km/h 1.0mph /  1.6km/h 45% 0.00in /  0mm 0.0 W/m2
23:31 47.5 °F /  8.6 °C 27.1 °F /  -2.7 °C 30.34in /  1027.3hPa Calm     45% 0.00in /  0mm 0.0 W/m2
23:37 47.5 °F /  8.6 °C 27.1 °F /  -2.7 °C 30.34in /  1027.3hPa Calm     45% 0.00in /  0mm 0.0 W/m2
23:41 47.1 °F /  8.4 °C 27.3 °F /  -2.6 °C 30.34in /  1027.3hPa Calm     46% 0.00in /  0mm 0.0 W/m2
23:47 47.1 °F /  8.4 °C 27.3 °F /  -2.6 °C 30.34in /  1027.3hPa Calm   1.0mph /  1.6km/h 46% 0.00in /  0mm 0.0 W/m2
23:53 47.1 °F /  8.4 °C 27.3 °F /  -2.6 °C 30.33in /  1027hPa Calm     46% 0.00in /  0mm 0.0 W/m2
23:59 47.1 °F /  8.4 °C 27.3 °F /  -2.6 °C 30.34in /  1027.3hPa Calm     46% 0.00in /  0mm 0.0 W/m2
Olympia, Windhoek, Namibia
Compliments of Weather Underground - 3 mb